createdAt,value
2022-10-08T00:01:51.524Z,9.45
2022-10-08T00:04:22.704Z,9.45
2022-10-08T00:06:52.760Z,9.27
2022-10-08T00:09:25.540Z,9.40
2022-10-08T00:11:58.909Z,8.93
2022-10-08T00:14:33.948Z,9.20
2022-10-08T00:17:04.640Z,9.38
2022-10-08T00:22:12.189Z,8.35
2022-10-08T00:24:44.853Z,9.07
2022-10-08T00:27:17.301Z,9.45
2022-10-08T00:29:52.732Z,8.32
2022-10-08T00:32:23.173Z,7.80
2022-10-08T00:34:54.670Z,8.07
2022-10-08T00:37:27.081Z,7.53
2022-10-08T00:39:56.140Z,7.18
2022-10-08T00:42:26.907Z,7.37
2022-10-08T00:45:02.102Z,7.43
2022-10-08T00:47:46.441Z,7.45
2022-10-08T00:50:27.067Z,6.37
2022-10-08T00:53:00.168Z,7.28
2022-10-08T00:55:30.250Z,7.15
2022-10-08T00:58:02.220Z,8.73
2022-10-08T01:00:33.779Z,8.98
2022-10-08T01:03:04.382Z,7.90
2022-10-08T01:05:51.636Z,8.80
2022-10-08T01:08:32.381Z,6.87
2022-10-08T01:11:11.504Z,6.90
2022-10-08T01:13:57.434Z,7.12
2022-10-08T01:16:35.108Z,7.45
2022-10-08T01:19:47.529Z,7.47
2022-10-08T01:22:40.676Z,6.37
2022-10-08T01:25:42.117Z,6.97
2022-10-08T01:28:43.856Z,6.72
2022-10-08T01:31:36.253Z,7.57
2022-10-08T01:34:09.696Z,6.90
2022-10-08T01:36:45.670Z,8.48
2022-10-08T01:39:19.592Z,8.10
2022-10-08T01:44:42.612Z,8.73
2022-10-08T01:47:15.053Z,8.02
2022-10-08T01:49:55.918Z,6.80
2022-10-08T01:52:29.027Z,7.10
2022-10-08T01:55:03.471Z,6.95
2022-10-08T01:57:34.031Z,6.95
2022-10-08T02:00:08.894Z,6.95
2022-10-08T02:02:41.396Z,6.70
2022-10-08T02:05:13.598Z,7.62
2022-10-08T02:07:44.952Z,8.02
2022-10-08T02:10:17.972Z,7.40
2022-10-08T02:12:48.440Z,6.70
2022-10-08T02:15:53.834Z,6.57
2022-10-08T02:18:38.375Z,6.93
2022-10-08T02:21:34.759Z,7.75
2022-10-08T02:24:13.784Z,8.13
2022-10-08T02:26:50.168Z,7.32
2022-10-08T02:29:34.078Z,7.70
2022-10-08T02:32:55.286Z,7.32
2022-10-08T02:35:32.591Z,6.82
2022-10-08T02:38:09.134Z,6.97
2022-10-08T02:40:40.652Z,6.97
2022-10-08T02:43:23.069Z,6.85
2022-10-08T02:46:11.997Z,7.72
2022-10-08T02:48:46.760Z,7.30
2022-10-08T02:51:17.907Z,7.68
2022-10-08T02:53:49.772Z,6.78
2022-10-08T02:56:21.490Z,6.97
2022-10-08T02:58:55.778Z,6.55
2022-10-08T03:01:45.161Z,6.60
2022-10-08T03:04:26.931Z,6.80
2022-10-08T03:06:58.597Z,6.62
2022-10-08T03:09:37.239Z,6.62
2022-10-08T03:12:07.402Z,6.20
2022-10-08T03:14:48.496Z,6.57
2022-10-08T03:17:25.024Z,5.70
2022-10-08T03:19:55.253Z,6.15
2022-10-08T03:22:25.385Z,6.12
2022-10-08T03:24:57.071Z,6.15
2022-10-08T03:27:28.917Z,6.20
2022-10-08T03:29:58.028Z,6.47
2022-10-08T03:32:27.688Z,6.30
2022-10-08T03:34:57.989Z,6.78
2022-10-08T03:37:29.936Z,7.50
2022-10-08T03:39:59.677Z,6.97
2022-10-08T03:42:29.397Z,7.22
2022-10-08T03:45:02.443Z,6.72
2022-10-08T03:47:33.276Z,6.40
2022-10-08T03:50:05.887Z,7.00
2022-10-08T03:52:34.800Z,6.80
2022-10-08T03:55:05.770Z,6.82
2022-10-08T03:57:34.871Z,6.00
2022-10-08T04:00:07.395Z,6.78
2022-10-08T04:02:39.080Z,6.28
2022-10-08T04:05:11.360Z,6.55
2022-10-08T04:07:43.718Z,6.18
2022-10-08T04:10:14.475Z,6.65
2022-10-08T04:12:45.441Z,6.33
2022-10-08T04:15:15.044Z,6.65
2022-10-08T04:17:46.664Z,6.62
2022-10-08T04:20:15.508Z,6.50
2022-10-08T04:22:47.165Z,6.55
2022-10-08T04:25:17.039Z,6.32
2022-10-08T04:27:50.543Z,6.53
2022-10-08T04:30:20.158Z,6.85
2022-10-08T04:32:49.679Z,6.93
2022-10-08T04:35:20.844Z,6.50
2022-10-08T04:37:52.473Z,6.65
2022-10-08T04:40:21.911Z,7.40
2022-10-08T04:42:53.398Z,6.65
2022-10-08T04:45:25.811Z,6.78
2022-10-08T04:47:55.245Z,6.57
2022-10-08T04:50:30.360Z,7.07
2022-10-08T04:53:01.145Z,6.47
2022-10-08T04:55:29.794Z,6.70
2022-10-08T04:57:59.231Z,6.28
2022-10-08T05:03:00.112Z,6.03
2022-10-08T05:05:32.457Z,5.72
2022-10-08T05:08:02.433Z,6.35
2022-10-08T05:10:37.159Z,6.47
2022-10-08T05:13:07.042Z,7.20
2022-10-08T05:15:39.497Z,6.03
2022-10-08T05:18:10.601Z,6.57
2022-10-08T05:20:42.860Z,7.00
2022-10-08T05:23:14.159Z,7.03
2022-10-08T05:25:43.385Z,8.10
2022-10-08T05:28:12.667Z,8.18
2022-10-08T05:30:41.273Z,7.45
2022-10-08T05:33:12.512Z,7.62
2022-10-08T05:35:44.415Z,6.82
2022-10-08T05:38:13.731Z,7.30
2022-10-08T05:40:45.492Z,9.32
2022-10-08T05:43:17.128Z,7.47
2022-10-08T05:45:52.388Z,7.22
2022-10-08T05:48:21.801Z,8.25
2022-10-08T05:50:51.262Z,9.13
2022-10-08T05:53:20.472Z,6.72
2022-10-08T05:56:01.336Z,6.90
2022-10-08T05:58:34.527Z,6.97
2022-10-08T06:01:15.526Z,7.80
2022-10-08T06:03:49.749Z,8.13
2022-10-08T06:06:26.210Z,8.80
2022-10-08T06:09:06.866Z,8.32
2022-10-08T06:11:38.202Z,8.52
2022-10-08T06:14:15.434Z,8.68
2022-10-08T06:16:45.374Z,8.98
2022-10-08T06:19:17.970Z,8.75
2022-10-08T06:21:48.433Z,11.43
2022-10-08T06:24:19.787Z,15.13
2022-10-08T06:26:49.508Z,18.60
2022-10-08T06:29:22.817Z,19.35
2022-10-08T06:31:53.782Z,19.00
2022-10-08T06:34:27.272Z,16.90
2022-10-08T06:36:57.424Z,17.55
2022-10-08T06:39:34.193Z,16.85
2022-10-08T06:42:06.723Z,15.48
2022-10-08T06:44:39.768Z,14.63
2022-10-08T06:47:09.943Z,15.25
2022-10-08T06:49:40.497Z,16.77
2022-10-08T06:52:13.013Z,16.42
2022-10-08T06:54:43.451Z,15.68
2022-10-08T06:57:14.411Z,15.38
2022-10-08T06:59:46.197Z,15.55
2022-10-08T07:02:23.530Z,16.58
2022-10-08T07:04:55.082Z,17.42
2022-10-08T07:07:24.397Z,15.38
2022-10-08T07:09:55.165Z,14.82
2022-10-08T07:12:24.630Z,15.32
2022-10-08T07:14:57.309Z,14.70
2022-10-08T07:17:28.942Z,13.88
2022-10-08T07:19:58.489Z,14.35
2022-10-08T07:22:27.684Z,14.07
2022-10-08T07:24:57.606Z,12.00
2022-10-08T07:27:27.815Z,13.10
2022-10-08T07:29:57.302Z,12.73
2022-10-08T07:32:31.537Z,12.48
2022-10-08T07:35:00.579Z,13.10
2022-10-08T07:37:35.563Z,12.13
2022-10-08T07:40:05.277Z,11.75
2022-10-08T07:42:42.139Z,12.00
2022-10-08T07:45:15.012Z,11.50
2022-10-08T07:47:45.769Z,11.77
2022-10-08T07:50:14.758Z,10.52
2022-10-08T07:52:47.516Z,11.88
2022-10-08T07:55:16.969Z,12.00
2022-10-08T07:57:47.373Z,10.87
2022-10-08T08:00:21.563Z,10.93
2022-10-08T08:02:53.477Z,10.77
2022-10-08T08:05:23.627Z,11.30
2022-10-08T08:07:56.458Z,9.50
2022-10-08T08:10:25.767Z,10.43
2022-10-08T08:12:58.411Z,10.40
2022-10-08T08:15:27.467Z,10.98
2022-10-08T08:17:59.086Z,10.95
2022-10-08T08:20:28.414Z,11.02
2022-10-08T08:23:00.227Z,10.52
2022-10-08T08:25:31.228Z,10.95
2022-10-08T08:28:09.464Z,10.32
2022-10-08T08:30:38.645Z,10.38
2022-10-08T08:33:09.802Z,9.40
2022-10-08T08:35:39.908Z,9.25
2022-10-08T08:38:11.350Z,10.55
2022-10-08T08:40:39.904Z,9.93
2022-10-08T08:43:09.527Z,10.15
2022-10-08T08:48:25.060Z,9.50
2022-10-08T08:50:56.676Z,9.57
2022-10-08T08:53:26.415Z,9.20
2022-10-08T08:56:00.791Z,8.82
2022-10-08T08:58:45.510Z,9.40
2022-10-08T09:01:45.971Z,9.73
2022-10-08T09:04:30.331Z,9.75
2022-10-08T09:07:00.099Z,9.40
2022-10-08T09:09:31.281Z,9.45
2022-10-08T09:12:07.152Z,9.90
2022-10-08T09:14:41.747Z,8.80
2022-10-08T09:17:19.600Z,10.27
2022-10-08T09:19:49.840Z,9.20
2022-10-08T09:22:26.835Z,9.25
2022-10-08T09:25:00.370Z,10.13
2022-10-08T09:27:51.849Z,8.00
2022-10-08T09:30:31.007Z,10.18
2022-10-08T09:35:35.245Z,8.55
2022-10-08T09:38:07.594Z,8.98
2022-10-08T09:40:37.315Z,8.37
2022-10-08T09:43:12.556Z,7.50
2022-10-08T09:45:46.624Z,8.43
2022-10-08T09:48:29.789Z,8.13
2022-10-08T09:51:04.838Z,8.23
2022-10-08T09:53:45.191Z,8.15
2022-10-08T09:56:15.167Z,8.00
2022-10-08T09:58:55.272Z,7.05
2022-10-08T10:01:25.856Z,6.62
2022-10-08T10:03:58.842Z,7.15
2022-10-08T10:06:39.956Z,6.70
2022-10-08T10:09:46.718Z,6.95
2022-10-08T10:12:33.185Z,7.30
2022-10-08T10:15:20.740Z,6.65
2022-10-08T10:17:54.878Z,6.10
2022-10-08T10:20:47.915Z,5.32
2022-10-08T10:23:20.874Z,5.30
2022-10-08T10:25:51.050Z,5.37
2022-10-08T10:28:24.271Z,5.78
2022-10-08T10:31:05.834Z,5.62
2022-10-08T10:33:40.929Z,5.60
2022-10-08T10:36:14.686Z,5.07
2022-10-08T10:38:50.700Z,5.05
2022-10-08T10:41:49.980Z,4.62
2022-10-08T10:44:28.288Z,5.10
2022-10-08T10:47:02.147Z,5.80
2022-10-08T10:49:38.686Z,4.70
2022-10-08T10:52:43.051Z,4.75
2022-10-08T10:55:27.314Z,4.25
2022-10-08T10:58:01.291Z,4.35
2022-10-08T11:01:09.755Z,4.45
2022-10-08T11:03:58.005Z,4.53
2022-10-08T11:06:31.617Z,5.12
2022-10-08T11:09:43.159Z,4.78
2022-10-08T11:12:16.109Z,4.60
2022-10-08T11:15:16.938Z,4.12
2022-10-08T11:17:57.863Z,3.47
2022-10-08T11:20:40.134Z,3.53
2022-10-08T11:23:15.356Z,3.90
2022-10-08T11:26:16.494Z,4.60
2022-10-08T11:28:54.169Z,4.37
2022-10-08T11:31:47.587Z,3.67
2022-10-08T11:34:35.759Z,3.85
2022-10-08T11:37:14.656Z,3.85
2022-10-08T11:39:45.084Z,3.80
2022-10-08T11:42:17.429Z,4.00
2022-10-08T11:44:45.925Z,4.32
2022-10-08T11:47:43.301Z,3.97
2022-10-08T11:50:25.508Z,4.12
2022-10-08T11:53:06.836Z,4.62
2022-10-08T11:55:34.731Z,4.15
2022-10-08T11:58:09.220Z,4.37
2022-10-08T12:00:45.291Z,3.75
2022-10-08T12:03:30.471Z,3.75
2022-10-08T12:06:00.886Z,4.55
2022-10-08T12:09:05.857Z,4.12
2022-10-08T12:11:33.478Z,3.90
2022-10-08T12:14:18.395Z,4.30
2022-10-08T12:16:49.383Z,4.30
2022-10-08T12:22:25.503Z,3.78
2022-10-08T12:24:59.090Z,4.00
2022-10-08T12:27:35.831Z,4.10
2022-10-08T12:30:12.142Z,4.50
2022-10-08T12:32:40.119Z,4.03
2022-10-08T12:35:20.150Z,3.90
2022-10-08T12:40:53.128Z,4.45
2022-10-08T12:43:46.432Z,3.90
2022-10-08T12:46:40.444Z,4.10
2022-10-08T12:49:47.337Z,3.92
2022-10-08T12:52:20.128Z,4.37
2022-10-08T12:54:52.219Z,4.07
2022-10-08T12:57:34.669Z,4.12
2022-10-08T13:00:09.832Z,4.07
2022-10-08T13:02:41.860Z,4.15
2022-10-08T13:05:28.375Z,5.30
2022-10-08T13:07:56.615Z,3.83
2022-10-08T13:10:29.438Z,4.47
2022-10-08T13:13:05.949Z,4.45
2022-10-08T13:15:34.895Z,4.43
2022-10-08T13:18:20.076Z,4.00
2022-10-08T13:21:03.970Z,3.90
2022-10-08T13:23:41.394Z,4.37
2022-10-08T13:26:42.024Z,4.37
2022-10-08T13:29:23.921Z,4.50
2022-10-08T13:32:04.045Z,4.50
2022-10-08T13:34:39.427Z,4.60
2022-10-08T13:37:13.271Z,4.45
2022-10-08T13:39:43.686Z,4.55
2022-10-08T13:42:16.687Z,4.25
2022-10-08T13:44:49.097Z,4.62
2022-10-08T13:47:20.334Z,4.20
2022-10-08T13:52:23.438Z,4.28
2022-10-08T13:54:58.964Z,4.60
2022-10-08T13:57:26.958Z,5.05
2022-10-08T13:59:56.489Z,4.68
2022-10-08T14:02:24.611Z,4.57
2022-10-08T14:04:53.750Z,4.53
2022-10-08T14:07:26.005Z,4.93
2022-10-08T14:09:56.435Z,4.75
2022-10-08T14:12:30.140Z,5.23
2022-10-08T14:14:59.224Z,5.10
2022-10-08T14:17:27.436Z,4.70
2022-10-08T14:19:55.674Z,4.50
2022-10-08T14:22:25.613Z,4.95
2022-10-08T14:24:54.139Z,4.90
2022-10-08T14:27:21.749Z,5.05
2022-10-08T14:29:50.503Z,4.65
2022-10-08T14:32:18.318Z,4.85
2022-10-08T14:34:46.784Z,4.80
2022-10-08T14:37:16.566Z,4.53
2022-10-08T14:39:45.823Z,5.22
2022-10-08T14:42:13.780Z,5.05
2022-10-08T14:44:43.190Z,4.53
2022-10-08T14:47:13.457Z,4.45
2022-10-08T14:49:41.973Z,4.40
2022-10-08T14:52:09.797Z,4.53
2022-10-08T14:54:38.372Z,5.05
2022-10-08T14:57:06.430Z,5.03
2022-10-08T14:59:39.901Z,4.62
2022-10-08T15:02:12.123Z,4.55
2022-10-08T15:04:43.573Z,4.53
2022-10-08T15:07:11.460Z,4.80
2022-10-08T15:09:40.727Z,4.80
2022-10-08T15:12:10.181Z,4.90
2022-10-08T15:14:38.581Z,4.90
2022-10-08T15:17:07.242Z,4.20
2022-10-08T15:19:35.797Z,4.85
2022-10-08T15:22:03.777Z,4.40
2022-10-08T15:24:31.882Z,4.97
2022-10-08T15:27:00.913Z,4.32
2022-10-08T15:29:28.682Z,4.47
2022-10-08T15:31:56.547Z,4.50
2022-10-08T15:34:27.215Z,4.80
2022-10-08T15:36:55.975Z,4.43
2022-10-08T15:39:25.320Z,4.63
2022-10-08T15:41:55.413Z,4.50
2022-10-08T15:44:24.402Z,4.50
2022-10-08T15:47:05.776Z,4.57
2022-10-08T15:49:41.901Z,4.30
2022-10-08T15:52:13.759Z,4.20
2022-10-08T15:54:42.956Z,4.53
2022-10-08T15:57:14.980Z,4.45
2022-10-08T15:59:44.304Z,4.57
2022-10-08T16:02:16.950Z,5.32
2022-10-08T16:04:47.662Z,5.12
2022-10-08T16:07:16.874Z,6.00
2022-10-08T16:09:45.469Z,6.22
2022-10-08T16:12:14.524Z,6.07
2022-10-08T16:14:43.489Z,6.70
2022-10-08T16:17:11.668Z,6.87
2022-10-08T16:19:42.091Z,7.60
2022-10-08T16:22:10.344Z,8.05
2022-10-08T16:24:38.347Z,4.93
2022-10-08T16:27:07.820Z,5.25
2022-10-08T16:29:35.503Z,5.32
2022-10-08T16:32:03.800Z,5.28
2022-10-08T16:34:33.435Z,5.80
2022-10-08T16:37:02.046Z,5.55
2022-10-08T16:39:29.890Z,5.37
2022-10-08T16:41:58.743Z,5.50
2022-10-08T16:44:27.450Z,7.32
2022-10-08T16:46:55.765Z,7.03
2022-10-08T16:49:26.815Z,6.72
2022-10-08T16:51:58.695Z,6.18
2022-10-08T16:54:28.746Z,6.70
2022-10-08T16:56:57.215Z,6.40
2022-10-08T16:59:27.211Z,12.52
2022-10-08T17:01:59.378Z,8.85
2022-10-08T17:04:28.685Z,14.18
2022-10-08T17:06:58.269Z,17.45
2022-10-08T17:09:27.245Z,11.23
2022-10-08T17:11:56.013Z,10.60
2022-10-08T17:14:26.713Z,15.48
2022-10-08T17:16:54.783Z,14.10
2022-10-08T17:19:22.493Z,13.93
2022-10-08T17:21:51.949Z,13.18
2022-10-08T17:24:19.998Z,12.80
2022-10-08T17:26:49.299Z,12.63
2022-10-08T17:29:20.455Z,12.70
2022-10-08T17:31:48.445Z,13.95
2022-10-08T17:34:17.163Z,13.98
2022-10-08T17:36:47.210Z,13.60
2022-10-08T17:39:15.716Z,12.07
2022-10-08T17:41:43.686Z,12.40
2022-10-08T17:44:14.008Z,12.35
2022-10-08T17:46:46.219Z,11.07
2022-10-08T17:49:16.883Z,12.20
2022-10-08T17:51:45.224Z,11.68
2022-10-08T17:54:19.272Z,12.15
2022-10-08T17:56:48.730Z,11.88
2022-10-08T17:59:19.836Z,12.93
2022-10-08T18:01:49.373Z,12.68
2022-10-08T18:04:19.667Z,11.93
2022-10-08T18:06:49.217Z,11.15
2022-10-08T18:09:21.278Z,11.05
2022-10-08T18:11:52.374Z,11.15
2022-10-08T18:14:22.440Z,11.93
2022-10-08T18:16:51.273Z,11.70
2022-10-08T18:19:19.734Z,11.55
2022-10-08T18:22:03.652Z,11.48
2022-10-08T18:24:38.653Z,11.93
2022-10-08T18:27:07.583Z,12.37
2022-10-08T18:29:36.712Z,11.85
2022-10-08T18:32:04.223Z,11.43
2022-10-08T18:34:32.402Z,10.82
2022-10-08T18:37:00.484Z,11.98
2022-10-08T18:39:28.923Z,11.43
2022-10-08T18:41:57.494Z,11.93
2022-10-08T18:44:28.203Z,11.68
2022-10-08T18:47:03.069Z,11.35
2022-10-08T18:49:34.185Z,10.50
2022-10-08T18:52:04.370Z,10.38
2022-10-08T18:54:33.492Z,10.90
2022-10-08T18:57:01.859Z,10.40
2022-10-08T18:59:32.439Z,10.45
2022-10-08T19:02:01.151Z,10.50
2022-10-08T19:04:29.256Z,10.85
2022-10-08T19:06:58.057Z,10.35
2022-10-08T19:09:32.889Z,9.18
2022-10-08T19:12:03.486Z,11.15
2022-10-08T19:14:31.518Z,9.48
2022-10-08T19:17:00.490Z,10.20
2022-10-08T19:19:32.141Z,9.90
2022-10-08T19:22:02.308Z,10.27
2022-10-08T19:24:39.945Z,10.57
2022-10-08T19:27:09.446Z,9.43
2022-10-08T19:29:39.403Z,10.10
2022-10-08T19:32:07.491Z,9.52
2022-10-08T19:34:35.866Z,9.82
2022-10-08T19:37:04.914Z,9.63
2022-10-08T19:39:34.508Z,9.57
2022-10-08T19:42:02.921Z,9.57
2022-10-08T19:44:33.722Z,10.32
2022-10-08T19:47:04.175Z,10.68
2022-10-08T19:49:40.468Z,10.90
2022-10-08T19:52:09.260Z,9.80
2022-10-08T19:54:50.765Z,8.90
2022-10-08T19:57:19.108Z,8.40
2022-10-08T19:59:49.902Z,8.60
2022-10-08T20:02:18.370Z,9.15
2022-10-08T20:04:48.013Z,8.70
2022-10-08T20:07:15.772Z,9.40
2022-10-08T20:09:44.042Z,9.55
2022-10-08T20:12:13.503Z,9.50
2022-10-08T20:14:42.938Z,9.32
2022-10-08T20:17:14.718Z,9.25
2022-10-08T20:19:45.620Z,9.05
2022-10-08T20:22:16.117Z,9.15
2022-10-08T20:24:45.215Z,9.13
2022-10-08T20:27:16.049Z,9.75
2022-10-08T20:29:46.744Z,9.68
2022-10-08T20:32:15.874Z,9.10
2022-10-08T20:34:44.246Z,9.20
2022-10-08T20:37:14.396Z,9.77
2022-10-08T20:39:42.205Z,10.48
2022-10-08T20:42:09.640Z,8.57
2022-10-08T20:44:37.516Z,9.13
2022-10-08T20:47:07.385Z,9.48
2022-10-08T20:49:36.276Z,9.40
2022-10-08T20:52:04.698Z,8.57
2022-10-08T20:54:34.056Z,8.52
2022-10-08T20:57:02.021Z,9.35
2022-10-08T20:59:30.124Z,8.98
2022-10-08T21:02:00.234Z,8.57
2022-10-08T21:04:28.671Z,8.75
2022-10-08T21:06:56.476Z,8.70
2022-10-08T21:09:25.579Z,9.00
2022-10-08T21:11:54.374Z,8.80
2022-10-08T21:14:22.814Z,8.70
2022-10-08T21:16:50.728Z,9.80
2022-10-08T21:19:22.191Z,8.80
2022-10-08T21:21:50.638Z,8.02
2022-10-08T21:24:18.874Z,8.57
2022-10-08T21:26:46.774Z,8.68
2022-10-08T21:29:15.525Z,8.50
2022-10-08T21:31:43.449Z,7.85
2022-10-08T21:34:12.724Z,8.73
2022-10-08T21:36:42.655Z,8.00
2022-10-08T21:39:14.736Z,8.57
2022-10-08T21:41:43.856Z,7.65
2022-10-08T21:44:13.545Z,8.15
2022-10-08T21:46:43.582Z,8.23
2022-10-08T21:49:17.890Z,8.25
2022-10-08T21:51:45.815Z,8.98
2022-10-08T21:54:16.226Z,8.75
2022-10-08T21:56:44.595Z,7.97
2022-10-08T21:59:15.911Z,8.60
2022-10-08T22:01:45.939Z,7.18
2022-10-08T22:06:47.081Z,7.55
2022-10-08T22:09:22.225Z,9.30
2022-10-08T22:11:54.333Z,9.10
2022-10-08T22:14:27.518Z,8.05
2022-10-08T22:16:57.307Z,8.27
2022-10-08T22:19:30.077Z,8.63
2022-10-08T22:22:01.177Z,9.13
2022-10-08T22:24:34.627Z,7.93
2022-10-08T22:27:03.789Z,7.90
2022-10-08T22:29:35.263Z,7.53
2022-10-08T22:32:05.449Z,7.85
2022-10-08T22:34:39.406Z,8.63
2022-10-08T22:37:09.362Z,9.50
2022-10-08T22:39:43.664Z,9.27
2022-10-08T22:42:12.849Z,10.05
2022-10-08T22:44:46.404Z,9.27
2022-10-08T22:47:16.196Z,9.38
2022-10-08T22:49:47.765Z,9.50
2022-10-08T22:52:16.902Z,9.18
2022-10-08T22:54:46.965Z,9.00
2022-10-08T22:57:20.381Z,9.15
2022-10-08T22:59:49.354Z,9.18
2022-10-08T23:04:49.730Z,9.68
2022-10-08T23:07:21.565Z,9.95
2022-10-08T23:09:50.807Z,9.52
2022-10-08T23:12:26.633Z,8.80
2022-10-08T23:14:55.966Z,8.35
2022-10-08T23:17:26.996Z,8.40
2022-10-08T23:19:58.584Z,9.23
2022-10-08T23:22:29.135Z,9.57
2022-10-08T23:25:01.950Z,10.90
2022-10-08T23:27:32.563Z,10.57
2022-10-08T23:30:02.444Z,11.35
2022-10-08T23:32:33.431Z,9.68
2022-10-08T23:35:05.415Z,8.93
2022-10-08T23:37:38.663Z,9.20
2022-10-08T23:40:08.979Z,7.82
2022-10-08T23:42:40.399Z,8.27
2022-10-08T23:45:11.408Z,7.90
2022-10-08T23:47:42.113Z,8.50
2022-10-08T23:50:11.761Z,7.65
2022-10-08T23:52:45.082Z,7.95
2022-10-08T23:55:17.727Z,8.32
2022-10-08T23:57:48.727Z,8.80
